Pagrindinis puslapis
METAR-TAF:

METAR-TAF

Oro uostai :

Abadanas, Iranas

platuma: 30-22N, ilguma: 048-15E, Aukštis: 3 m

Dabartinis oras

Ataskaita buvo paskelbta 43 minutes, ne 04:00 UTC
Vėjas 2 kt iš Šiaurės Rytų
Temperatūra 13°C
Drėgmė 82%
Slėgis 1013 hPa
Matomumas: 4000 m
rūkana

METAR: OIAA 290400Z 05002KT 4000 BR NSC 13/10 Q1013

Laikas: 08:13 (04:43 UTC)

Prognozė

Ataskaita buvo paskelbta 5 valandos ir 43 minutes, ne 23:00 UTC
Prognozė galioja nuo 29 metu 00 UTC su 01 metu 06 UTC
Vėjas 8 kt iš Vakarų/Šiaurės Vakarų
Matomumas: 5000 m
rūkana
Laikinai
nuo 29 metu 00 UTC su 29 metu 04 UTC
Matomumas: 1500 m
rūkana
Tapsmas
nuo 29 metu 06 UTC su 29 metu 08 UTC
Matomumas: 7000 m
Tapsmas
nuo 29 metu 13 UTC su 29 metu 15 UTC
Vėjas 8 kt iš Pietryčių
Laikinai
nuo 01 metu 02 UTC su 01 metu 06 UTC
Matomumas: 3000 m

TAF: OIAA 282300Z 2900/0106 30008KT 5000 BR NSC TEMPO 2900/2904 1500 BR BECMG 2906/2908 7000 BECMG 2913/2915 13008KT TEMPO 0102/0106 3000 BR/HZ

Orai ataskaitas ir orų prognozės (METAR, TAF).

turimą stotys yra geltonos ir raudonos taškus žemėlapyje.

Perkelti pele per norėdami pamatyti stoties vardą.

Tada spustelėkite, norėdami matyti oro stebėjimo ir prognozės.

Norėdami pakeisti žemėlapį: spustelėkite ant žalios mygtukų su juodo kryžiaus žemyn,; žalią mygtuką su brūkšneliu, jei norite nutolinti; arba žalių rodyklių gretimoms žemėlapius.


METAR-TAF: